Air Sicilia Virtual Airways - Route

Air Sicilia Virtual Airways - SIC306L

( GB ) EGHQ
Newquay Cornwall Airport
NEWQUAY ( NQY )
plane_to ( IE ) EIDL
Donegal Airport
DONEGAL ( CFN )
Business Exec World Tour 2018 - LEG: 30

AIRPORT NEAR NAVIGATION AIDS

Type Name Frequency
VOR-DME Lands End 114200 KHZ
NDB St Mawgan 357 KHZ
TACAN St Mawgan 112600 KHZ

METAR / TAF
EGHQ 211220Z 35011KT CAVOK 16/10 Q1021

RUNWAY INFORMATION

Runway Runway length Runway width Runway elevation Runway displaced threshold Runway heading
13 9006 285 306 0 120.5
31 9006 285 390 0 300.5

AIRPORT FREQUENCIES

Type Name Frequency
APP APP 128.725 MHZ
ATIS ATIS 23.41 MHZ
DIR DIRECTOR 125.55 MHZ
GND GND 24.187 MHZ
MISC ZONE 25.897 MHZ
OPS OPS 27.53 MHZ
TWR TWR 123.4 MHZ

AIRPORT NEAR NAVIGATION AIDS

Type Name Frequency
NDB Donegal 361 KHZ

METAR / TAF
EIDL 211200Z 33007KT 9999 SCT044 12/07 Q1021

RUNWAY INFORMATION

Runway Runway length Runway width Runway elevation Runway displaced threshold Runway heading
03 4908 98 10 656 20.2
21 4908 98 30 656 200.2

AIRPORT FREQUENCIES

Type Name Frequency
ATIS ATIS 129.925 MHZ
GND GND 129.8 MHZ
TWR TWR 129.8 MHZ

Flightplan

ELRAG UN18 PEMOB M17 VATRY

Air Sicilia Virtual Airways Fleets

AVAILABLE AIRCRAFTS for route at this time in Newquay Cornwall Airport
C550 - Cessna 550 Citation II
( US ) Cessna

Aircraft in fleet: 1

CL30 - BD-100 Challenger 300
( CA ) Bombardier

Aircraft in fleet: 1

LJ35 - Bombardier Learjet 35A
( CA ) Bombardier

Aircraft in fleet: 1

305 NM

Distance in nautical miles.

€ 130,00

Ticket price for this flight.

Nr. 30

Leg



12-11-2018
Aerosoft Airport Rio de Janeiro International V2.0 XP

L'Aeroporto Internazionale di Rio de Janeiro-Galeão (IATA: GIG, ICAO: SBGL), costruito nel 1952 nel quartiere di Ilha do Governador ed intitolato al musicista Antônio Carlos Jobim, è il principale aeroporto internazio ....


15-10-2018
Aerosoft A320 Family professional

La gamma di aeromobili A320 è una delle più comuni nei cieli. Questi aerei di linea a doppio-getto a corto e medio raggio si sono dimostrati convenienti, affidabili e prontamente disponibili, rendendoli le opzioni migl ....


10-10-2018
Motore critico ( Critical Engine )

Il motore critico di un velivolo ad ala fissa multi-motore è il motore che, in caso di guasto, influirebbe negativamente sulle prestazioni o sulla capacità di manovra di un aereo. Sui velivoli ad elica, vi è un ....


04-10-2018
Aerosoft Dortmund XP

Scopri il centro della regione della Ruhr su XPlane 11 - lo scenario Dortmund XP è una ricostruzione completa della città di Dortmund per il simulatore di volo targato Laminar. Oltre all'intera area urbana di Dortmu ....


07-08-2018
Aerosoft Professional Flight Planner PFPX

PFPX - Professional Flight Planner X - è un nuovo ed innovativo strumento di pianificazione del volo sviluppato da piloti e dispatcher del mondo reale. È un'aggiunta preziosa e realistica alla tua esperienza di simulaz ....